createdAt,value
2018-09-15T00:00:54.794Z,4.53
2018-09-15T00:03:22.978Z,7.60
2018-09-15T00:05:50.830Z,6.17
2018-09-15T00:08:18.594Z,9.47
2018-09-15T00:10:46.518Z,4.47
2018-09-15T00:13:14.768Z,5.40
2018-09-15T00:15:42.563Z,5.30
2018-09-15T00:18:13.211Z,6.60
2018-09-15T00:20:41.116Z,4.93
2018-09-15T00:23:10.028Z,4.77
2018-09-15T00:25:37.784Z,9.30
2018-09-15T00:28:05.651Z,5.17
2018-09-15T00:30:33.504Z,5.90
2018-09-15T00:33:01.300Z,5.50
2018-09-15T00:35:29.479Z,4.93
2018-09-15T00:37:57.367Z,5.20
2018-09-15T00:40:25.191Z,5.80
2018-09-15T00:42:52.967Z,6.60
2018-09-15T00:45:20.801Z,4.53
2018-09-15T00:47:49.187Z,5.70
2018-09-15T00:50:17.056Z,6.40
2018-09-15T00:52:44.826Z,5.47
2018-09-15T00:55:12.618Z,5.07
2018-09-15T00:57:40.432Z,5.47
2018-09-15T01:00:08.738Z,5.10
2018-09-15T01:02:36.965Z,5.60
2018-09-15T01:05:05.043Z,4.40
2018-09-15T01:07:32.862Z,4.27
2018-09-15T01:10:01.071Z,4.90
2018-09-15T01:12:28.947Z,7.27
2018-09-15T01:14:56.747Z,5.80
2018-09-15T01:17:24.529Z,4.17
2018-09-15T01:19:52.498Z,5.53
2018-09-15T01:22:20.603Z,5.57
2018-09-15T01:24:48.399Z,5.37
2018-09-15T01:27:16.183Z,5.03
2018-09-15T01:29:44.042Z,8.20
2018-09-15T01:32:11.837Z,4.93
2018-09-15T01:34:39.650Z,4.83
2018-09-15T01:37:07.450Z,6.03
2018-09-15T01:39:35.918Z,5.10
2018-09-15T01:42:03.703Z,7.20
2018-09-15T01:44:31.624Z,4.80
2018-09-15T01:46:59.402Z,4.63
2018-09-15T01:49:27.210Z,5.63
2018-09-15T01:51:55.119Z,4.97
2018-09-15T01:54:22.930Z,8.50
2018-09-15T01:56:50.718Z,9.00
2018-09-15T01:59:18.518Z,5.87
2018-09-15T02:01:46.372Z,5.00
2018-09-15T02:04:14.174Z,4.57
2018-09-15T02:06:42.000Z,3.90
2018-09-15T02:09:11.649Z,4.73
2018-09-15T02:11:39.444Z,6.23
2018-09-15T02:14:07.249Z,6.57
2018-09-15T02:16:35.103Z,5.27
2018-09-15T02:19:02.942Z,5.20
2018-09-15T02:21:30.802Z,5.47
2018-09-15T02:23:58.967Z,5.83
2018-09-15T02:26:28.703Z,4.70
2018-09-15T02:28:56.516Z,5.60
2018-09-15T02:31:27.237Z,6.07
2018-09-15T02:33:55.092Z,4.90
2018-09-15T02:36:23.009Z,5.00
2018-09-15T02:38:50.812Z,5.13
2018-09-15T02:41:18.781Z,6.93
2018-09-15T02:43:47.252Z,6.20
2018-09-15T02:46:15.349Z,4.37
2018-09-15T02:48:43.858Z,5.97
2018-09-15T02:51:11.698Z,6.80
2018-09-15T02:53:39.511Z,5.23
2018-09-15T02:56:07.415Z,6.77
2018-09-15T02:58:35.250Z,5.83
2018-09-15T03:01:03.072Z,4.70
2018-09-15T03:03:31.002Z,4.37
2018-09-15T03:05:58.888Z,4.73
2018-09-15T03:08:36.204Z,6.10
2018-09-15T03:11:04.283Z,4.37
2018-09-15T03:13:32.464Z,4.43
2018-09-15T03:16:00.333Z,3.80
2018-09-15T03:18:28.108Z,6.13
2018-09-15T03:20:55.899Z,4.93
2018-09-15T03:23:23.679Z,5.10
2018-09-15T03:25:55.067Z,4.73
2018-09-15T03:28:24.103Z,3.90
2018-09-15T03:30:51.866Z,5.03
2018-09-15T03:33:19.723Z,6.27
2018-09-15T03:35:47.492Z,4.73
2018-09-15T03:38:15.300Z,4.37
2018-09-15T03:40:43.100Z,6.63
2018-09-15T03:43:10.892Z,4.17
2018-09-15T03:45:38.744Z,5.27
2018-09-15T03:48:06.765Z,5.80
2018-09-15T03:50:34.532Z,5.77
2018-09-15T03:53:02.303Z,5.87
2018-09-15T03:55:30.120Z,6.17
2018-09-15T03:57:57.887Z,4.53
2018-09-15T04:00:25.675Z,4.80
2018-09-15T04:02:53.498Z,5.77
2018-09-15T04:05:21.394Z,5.77
2018-09-15T04:07:49.195Z,4.00
2018-09-15T04:10:17.125Z,4.80
2018-09-15T04:12:46.404Z,5.17
2018-09-15T04:15:14.197Z,7.53
2018-09-15T04:17:41.978Z,6.20
2018-09-15T04:20:09.790Z,6.47
2018-09-15T04:22:37.577Z,6.07
2018-09-15T04:25:05.568Z,4.53
2018-09-15T04:27:33.441Z,6.33
2018-09-15T04:30:01.214Z,5.20
2018-09-15T04:32:29.117Z,5.10
2018-09-15T04:34:56.989Z,7.03
2018-09-15T04:37:24.760Z,7.33
2018-09-15T04:39:52.563Z,4.97
2018-09-15T04:42:20.470Z,7.20
2018-09-15T04:44:48.263Z,7.03
2018-09-15T04:47:16.031Z,10.13
2018-09-15T04:49:43.827Z,6.63
2018-09-15T04:52:11.922Z,8.13
2018-09-15T04:54:39.764Z,7.93
2018-09-15T04:57:07.536Z,5.77
2018-09-15T04:59:35.411Z,7.40
2018-09-15T05:02:03.210Z,13.33
2018-09-15T05:04:30.979Z,6.03
2018-09-15T05:06:58.769Z,6.53
2018-09-15T05:09:26.553Z,8.20
2018-09-15T05:11:54.403Z,7.70
2018-09-15T05:14:22.207Z,6.57
2018-09-15T05:16:50.015Z,7.10
2018-09-15T05:19:17.821Z,6.50
2018-09-15T05:21:45.602Z,5.57
2018-09-15T05:24:13.387Z,6.23
2018-09-15T05:26:41.159Z,7.37
2018-09-15T05:29:09.014Z,12.27
2018-09-15T05:31:36.822Z,7.30
2018-09-15T05:34:04.633Z,7.70
2018-09-15T05:36:32.514Z,8.10
2018-09-15T05:39:00.297Z,8.03
2018-09-15T05:41:28.106Z,7.43
2018-09-15T05:43:55.975Z,6.53
2018-09-15T05:46:23.767Z,12.00
2018-09-15T05:48:51.587Z,8.73
2018-09-15T05:51:19.422Z,8.73
2018-09-15T05:53:47.203Z,7.33
2018-09-15T05:56:15.028Z,5.53
2018-09-15T05:58:42.858Z,7.80
2018-09-15T06:01:10.769Z,5.53
2018-09-15T06:03:38.546Z,7.00
2018-09-15T06:06:06.318Z,6.83
2018-09-15T06:08:34.282Z,5.97
2018-09-15T06:11:02.054Z,4.67
2018-09-15T06:13:30.161Z,5.13
2018-09-15T06:15:58.006Z,4.47
2018-09-15T06:18:25.852Z,6.13
2018-09-15T06:20:53.679Z,5.80
2018-09-15T06:23:21.464Z,6.30
2018-09-15T06:25:49.332Z,7.27
2018-09-15T06:28:17.102Z,5.57
2018-09-15T06:30:44.861Z,7.37
2018-09-15T06:33:12.651Z,3.93
2018-09-15T06:35:40.544Z,5.10
2018-09-15T06:38:08.375Z,7.43
2018-09-15T06:40:36.164Z,6.33
2018-09-15T06:43:03.945Z,7.63
2018-09-15T06:45:31.723Z,7.67
2018-09-15T06:47:59.594Z,4.87
2018-09-15T06:50:27.360Z,5.93
2018-09-15T06:52:55.170Z,6.57
2018-09-15T06:55:22.998Z,7.57
2018-09-15T06:57:51.161Z,4.57
2018-09-15T07:00:18.950Z,7.80
2018-09-15T07:02:46.742Z,5.40
2018-09-15T07:05:14.536Z,6.50
2018-09-15T07:07:42.348Z,7.07
2018-09-15T07:10:10.210Z,5.90
2018-09-15T07:12:38.013Z,5.70
2018-09-15T07:15:05.876Z,5.57
2018-09-15T07:17:33.767Z,5.60
2018-09-15T07:20:01.588Z,11.60
2018-09-15T07:22:29.335Z,7.60
2018-09-15T07:24:57.103Z,5.97
2018-09-15T07:27:24.965Z,6.50
2018-09-15T07:29:52.752Z,5.60
2018-09-15T07:32:20.582Z,7.83
2018-09-15T07:34:48.552Z,7.43
2018-09-15T07:37:16.302Z,8.23
2018-09-15T07:39:44.110Z,6.10
2018-09-15T07:42:12.059Z,8.27
2018-09-15T07:44:40.027Z,6.57
2018-09-15T07:47:07.856Z,6.23
2018-09-15T07:49:35.650Z,5.33
2018-09-15T07:52:03.419Z,5.17
2018-09-15T07:54:31.232Z,5.13
2018-09-15T07:56:59.095Z,6.67
2018-09-15T07:59:26.874Z,4.77
2018-09-15T08:01:55.800Z,5.30
2018-09-15T08:04:23.586Z,5.67
2018-09-15T08:06:51.388Z,4.83
2018-09-15T08:09:19.154Z,6.33
2018-09-15T08:11:46.963Z,5.40
2018-09-15T08:14:14.736Z,6.83
2018-09-15T08:16:42.546Z,5.70
2018-09-15T08:19:10.338Z,7.43
2018-09-15T08:21:38.135Z,4.97
2018-09-15T08:24:05.924Z,7.73
2018-09-15T08:26:33.770Z,9.60
2018-09-15T08:29:01.495Z,7.07
2018-09-15T08:31:29.358Z,7.73
2018-09-15T08:33:57.245Z,6.07
2018-09-15T08:36:25.088Z,6.47
2018-09-15T08:38:52.859Z,6.77
2018-09-15T08:41:20.676Z,7.07
2018-09-15T08:43:48.463Z,5.33
2018-09-15T08:46:16.239Z,8.93
2018-09-15T08:48:44.071Z,4.87
2018-09-15T08:51:11.893Z,4.63
2018-09-15T08:53:39.756Z,4.80
2018-09-15T08:56:07.587Z,4.60
2018-09-15T08:58:35.425Z,7.67
2018-09-15T09:01:03.246Z,4.90
2018-09-15T09:03:31.056Z,6.43
2018-09-15T09:05:58.839Z,4.87
2018-09-15T09:08:26.622Z,8.20
2018-09-15T09:10:54.423Z,5.20
2018-09-15T09:13:22.183Z,6.77
2018-09-15T09:15:50.055Z,5.37
2018-09-15T09:18:17.860Z,9.83
2018-09-15T09:20:45.632Z,5.87
2018-09-15T09:23:13.438Z,3.90
2018-09-15T09:25:41.266Z,7.20
2018-09-15T09:28:09.108Z,6.77
2018-09-15T09:30:36.972Z,36.60
2018-09-15T09:33:04.753Z,7.20
2018-09-15T09:35:32.548Z,4.20
2018-09-15T09:38:00.486Z,4.70
2018-09-15T09:40:28.268Z,5.20
2018-09-15T09:42:56.375Z,6.23
2018-09-15T09:45:24.258Z,4.30
2018-09-15T09:47:52.083Z,3.87
2018-09-15T09:50:19.965Z,5.20
2018-09-15T09:52:47.788Z,6.00
2018-09-15T09:55:15.565Z,4.60
2018-09-15T09:57:43.370Z,4.00
2018-09-15T10:00:15.478Z,5.63
2018-09-15T10:02:43.407Z,4.60
2018-09-15T10:05:11.451Z,4.63
2018-09-15T10:07:39.323Z,4.70
2018-09-15T10:10:07.326Z,4.77
2018-09-15T10:12:36.563Z,6.27
2018-09-15T10:15:04.393Z,4.10
2018-09-15T10:17:32.177Z,5.90
2018-09-15T10:19:59.962Z,4.50
2018-09-15T10:22:27.823Z,4.03
2018-09-15T10:24:55.611Z,3.80
2018-09-15T10:27:23.454Z,6.77
2018-09-15T10:29:51.254Z,5.67
2018-09-15T10:32:19.055Z,5.30
2018-09-15T10:34:46.871Z,5.70
2018-09-15T10:37:14.638Z,4.40
2018-09-15T10:39:42.414Z,3.60
2018-09-15T10:42:10.319Z,4.63
2018-09-15T10:44:38.326Z,3.97
2018-09-15T10:47:06.083Z,4.23
2018-09-15T10:49:33.883Z,3.83
2018-09-15T10:52:01.690Z,4.17
2018-09-15T10:54:29.602Z,7.67
2018-09-15T10:56:57.436Z,3.93
2018-09-15T10:59:25.247Z,3.80
2018-09-15T11:01:53.026Z,3.87
2018-09-15T11:04:20.787Z,3.83
2018-09-15T11:06:48.610Z,4.60
2018-09-15T11:09:16.435Z,4.77
2018-09-15T11:11:44.226Z,3.37
2018-09-15T11:14:12.004Z,4.83
2018-09-15T11:16:39.771Z,3.53
2018-09-15T11:19:07.634Z,3.77
2018-09-15T11:21:35.463Z,3.73
2018-09-15T11:24:03.268Z,4.00
2018-09-15T11:26:31.063Z,6.70
2018-09-15T11:28:58.886Z,6.87
2018-09-15T11:31:26.643Z,4.00
2018-09-15T11:33:54.569Z,3.60
2018-09-15T11:36:22.388Z,4.40
2018-09-15T11:38:50.184Z,3.63
2018-09-15T11:41:18.185Z,3.20
2018-09-15T11:43:46.000Z,4.23
2018-09-15T11:46:13.734Z,3.33
2018-09-15T11:48:41.582Z,4.80
2018-09-15T11:51:09.398Z,5.17
2018-09-15T11:53:37.227Z,5.37
2018-09-15T11:56:05.413Z,3.63
2018-09-15T11:58:33.211Z,3.47
2018-09-15T12:01:03.366Z,3.27
2018-09-15T12:03:31.215Z,4.57
2018-09-15T12:05:59.019Z,5.97
2018-09-15T12:08:26.938Z,5.27
2018-09-15T12:10:54.734Z,4.40
2018-09-15T12:13:22.523Z,3.87
2018-09-15T12:15:50.569Z,4.40
2018-09-15T12:18:18.671Z,3.80
2018-09-15T12:20:46.503Z,3.20
2018-09-15T12:23:14.316Z,4.20
2018-09-15T12:25:42.261Z,3.40
2018-09-15T12:28:10.266Z,3.57
2018-09-15T12:30:38.043Z,3.30
2018-09-15T12:33:06.002Z,5.07
2018-09-15T12:35:33.886Z,4.40
2018-09-15T12:38:01.723Z,3.33
2018-09-15T12:40:29.531Z,3.13
2018-09-15T12:42:57.415Z,3.13
2018-09-15T12:45:25.270Z,5.50
2018-09-15T12:47:53.061Z,4.83
2018-09-15T12:50:20.950Z,3.27
2018-09-15T12:52:48.735Z,4.73
2018-09-15T12:55:16.519Z,4.10
2018-09-15T12:57:44.382Z,3.33
2018-09-15T13:00:12.255Z,4.10
2018-09-15T13:02:40.053Z,4.50
2018-09-15T13:05:07.995Z,4.47
2018-09-15T13:07:35.844Z,3.43
2018-09-15T13:10:03.700Z,4.17
2018-09-15T13:12:31.491Z,3.30
2018-09-15T13:14:59.259Z,4.30
2018-09-15T13:17:27.084Z,8.80
2018-09-15T13:19:54.913Z,3.37
2018-09-15T13:22:22.826Z,5.20
2018-09-15T13:24:52.756Z,3.40
2018-09-15T13:27:20.658Z,5.03
2018-09-15T13:29:48.630Z,2.87
2018-09-15T13:32:16.262Z,4.73
2018-09-15T13:34:44.090Z,2.90
2018-09-15T13:37:11.890Z,4.07
2018-09-15T13:39:39.668Z,3.37
2018-09-15T13:42:07.536Z,3.00
2018-09-15T13:44:35.367Z,6.27
2018-09-15T13:47:03.161Z,3.07
2018-09-15T13:49:30.999Z,4.07
2018-09-15T13:51:58.830Z,3.80
2018-09-15T13:54:26.626Z,3.67
2018-09-15T13:56:54.411Z,5.70
2018-09-15T13:59:22.543Z,4.60
2018-09-15T14:01:50.383Z,3.50
2018-09-15T14:04:18.145Z,7.60
2018-09-15T14:06:45.902Z,2.77
2018-09-15T14:09:13.710Z,3.40
2018-09-15T14:11:41.487Z,4.37
2018-09-15T14:14:09.290Z,3.40
2018-09-15T14:16:37.182Z,4.17
2018-09-15T14:19:05.039Z,2.90
2018-09-15T14:21:32.821Z,4.30
2018-09-15T14:24:00.663Z,8.33
2018-09-15T14:26:28.470Z,3.50
2018-09-15T14:28:56.296Z,3.00
2018-09-15T14:31:24.123Z,3.33
2018-09-15T14:33:51.993Z,7.60
2018-09-15T14:36:19.812Z,3.90
2018-09-15T14:38:47.648Z,3.30
2018-09-15T14:41:15.423Z,4.87
2018-09-15T14:43:43.208Z,3.17
2018-09-15T14:46:11.105Z,4.00
2018-09-15T14:48:38.883Z,4.63
2018-09-15T14:51:06.787Z,4.80
2018-09-15T14:53:34.598Z,4.67
2018-09-15T14:56:02.527Z,4.60
2018-09-15T14:58:30.362Z,3.53
2018-09-15T15:00:58.135Z,5.30
2018-09-15T15:03:26.082Z,5.60
2018-09-15T15:05:53.904Z,3.50
2018-09-15T15:08:22.000Z,3.77
2018-09-15T15:10:49.770Z,4.40
2018-09-15T15:13:17.543Z,4.53
2018-09-15T15:15:45.401Z,7.07
2018-09-15T15:18:13.175Z,7.10
2018-09-15T15:20:40.966Z,4.20
2018-09-15T15:23:09.462Z,4.77
2018-09-15T15:25:37.299Z,5.83
2018-09-15T15:28:05.367Z,5.07
2018-09-15T15:30:33.267Z,4.80
2018-09-15T15:33:01.090Z,4.50
2018-09-15T15:35:28.947Z,5.83
2018-09-15T15:37:56.743Z,3.67
2018-09-15T15:40:24.556Z,5.07
2018-09-15T15:42:52.387Z,6.03
2018-09-15T15:45:20.147Z,5.37
2018-09-15T15:47:47.922Z,6.13
2018-09-15T15:50:15.718Z,6.47
2018-09-15T15:52:43.654Z,4.57
2018-09-15T15:55:11.491Z,6.13
2018-09-15T15:57:39.297Z,8.77
2018-09-15T16:00:07.375Z,5.50
2018-09-15T16:02:35.573Z,5.53
2018-09-15T16:05:03.412Z,4.43
2018-09-15T16:07:31.246Z,5.23
2018-09-15T16:09:59.091Z,6.03
2018-09-15T16:12:26.854Z,5.73
2018-09-15T16:14:54.678Z,6.00
2018-09-15T16:17:22.491Z,5.83
2018-09-15T16:19:50.329Z,5.63
2018-09-15T16:22:18.136Z,5.37
2018-09-15T16:24:45.951Z,5.37
2018-09-15T16:27:13.736Z,4.97
2018-09-15T16:29:41.498Z,6.40
2018-09-15T16:32:09.363Z,5.07
2018-09-15T16:34:37.142Z,7.37
2018-09-15T16:37:04.922Z,6.30
2018-09-15T16:39:32.778Z,8.73
2018-09-15T16:42:00.547Z,7.40
2018-09-15T16:44:28.339Z,5.53
2018-09-15T16:46:56.145Z,10.67
2018-09-15T16:49:23.943Z,6.33
2018-09-15T16:51:53.205Z,7.90
2018-09-15T16:54:21.125Z,9.97
2018-09-15T16:56:49.000Z,7.10
2018-09-15T16:59:16.798Z,6.73
2018-09-15T17:01:44.674Z,9.23
2018-09-15T17:04:12.518Z,10.60
2018-09-15T17:06:40.326Z,9.13
2018-09-15T17:09:09.094Z,9.10
2018-09-15T17:11:37.095Z,8.30
2018-09-15T17:14:04.870Z,7.43
2018-09-15T17:16:32.852Z,9.53
2018-09-15T17:19:00.622Z,8.40
2018-09-15T17:21:28.420Z,8.00
2018-09-15T17:23:56.291Z,12.50
2018-09-15T17:26:24.061Z,10.13
2018-09-15T17:28:51.906Z,9.67
2018-09-15T17:31:19.918Z,10.67
2018-09-15T17:33:47.663Z,10.33
2018-09-15T17:36:15.459Z,11.43
2018-09-15T17:38:43.351Z,9.20
2018-09-15T17:41:11.131Z,11.67
2018-09-15T17:43:38.902Z,11.93
2018-09-15T17:46:06.954Z,9.63
2018-09-15T17:48:34.743Z,9.47
2018-09-15T17:51:02.577Z,11.97
2018-09-15T17:53:30.384Z,15.63
2018-09-15T17:55:58.219Z,11.50
2018-09-15T17:58:26.042Z,11.30
2018-09-15T18:00:53.910Z,10.67
2018-09-15T18:03:21.726Z,11.20
2018-09-15T18:05:49.588Z,12.13
2018-09-15T18:08:17.420Z,12.90
2018-09-15T18:10:45.255Z,15.27
2018-09-15T18:13:13.151Z,11.97
2018-09-15T18:15:40.938Z,13.13
2018-09-15T18:18:08.809Z,12.00
2018-09-15T18:20:36.587Z,10.57
2018-09-15T18:23:04.479Z,14.10
2018-09-15T18:25:32.238Z,11.27
2018-09-15T18:28:00.141Z,10.13
2018-09-15T18:30:27.895Z,12.17
2018-09-15T18:32:55.697Z,11.47
2018-09-15T18:35:23.515Z,12.00
2018-09-15T18:37:51.394Z,13.10
2018-09-15T18:40:19.243Z,11.87
2018-09-15T18:42:47.054Z,12.93
2018-09-15T18:45:14.871Z,12.80
2018-09-15T18:47:42.819Z,12.83
2018-09-15T18:50:10.615Z,12.63
2018-09-15T18:52:38.415Z,11.80
2018-09-15T18:55:06.287Z,14.50
2018-09-15T18:57:34.178Z,9.63
2018-09-15T19:00:02.059Z,14.53
2018-09-15T19:02:29.955Z,11.57
2018-09-15T19:04:57.718Z,9.40
2018-09-15T19:07:25.486Z,12.03
2018-09-15T19:09:53.262Z,10.40
2018-09-15T19:12:21.040Z,13.50
2018-09-15T19:14:49.002Z,10.23
2018-09-15T19:17:16.835Z,11.80
2018-09-15T19:19:44.615Z,10.30
2018-09-15T19:22:12.415Z,12.17
2018-09-15T19:24:40.309Z,14.43
2018-09-15T19:27:08.076Z,13.37
2018-09-15T19:29:35.870Z,17.03
2018-09-15T19:32:03.700Z,16.17
2018-09-15T19:34:31.676Z,15.43
2018-09-15T19:36:59.483Z,13.53
2018-09-15T19:39:27.246Z,11.80
2018-09-15T19:41:55.036Z,12.60
2018-09-15T19:44:22.836Z,11.40
2018-09-15T19:46:50.690Z,12.73
2018-09-15T19:49:18.538Z,10.90
2018-09-15T19:51:46.308Z,12.27
2018-09-15T19:54:14.112Z,11.67
2018-09-15T19:56:41.886Z,9.63
2018-09-15T19:59:09.704Z,15.40
2018-09-15T20:01:37.483Z,10.13
2018-09-15T20:04:05.262Z,8.60
2018-09-15T20:06:33.050Z,13.10
2018-09-15T20:09:00.914Z,11.20
2018-09-15T20:11:28.679Z,12.03
2018-09-15T20:13:56.460Z,11.03
2018-09-15T20:16:23.522Z,7.80
2018-09-15T20:18:50.650Z,9.67
2018-09-15T20:21:17.659Z,10.87
2018-09-15T20:23:51.891Z,9.73
2018-09-15T20:26:19.745Z,10.67
2018-09-15T20:28:47.550Z,10.60
2018-09-15T20:31:15.470Z,11.40
2018-09-15T20:33:43.268Z,9.57
2018-09-15T20:36:11.084Z,11.13
2018-09-15T20:38:38.888Z,10.07
2018-09-15T20:41:06.755Z,10.67
2018-09-15T20:43:34.549Z,9.63
2018-09-15T20:46:02.324Z,8.43
2018-09-15T20:48:30.165Z,8.70
2018-09-15T20:50:57.947Z,13.60
2018-09-15T20:53:26.781Z,9.90
2018-09-15T20:55:54.567Z,11.00
2018-09-15T20:58:22.366Z,9.30
2018-09-15T21:00:50.164Z,9.47
2018-09-15T21:03:17.935Z,10.07
2018-09-15T21:05:45.863Z,10.93
2018-09-15T21:08:13.634Z,8.83
2018-09-15T21:10:41.463Z,9.67
2018-09-15T21:13:09.239Z,9.90
2018-09-15T21:15:37.035Z,8.90
2018-09-15T21:18:04.850Z,10.47
2018-09-15T21:20:32.655Z,9.73
2018-09-15T21:23:00.447Z,8.93
2018-09-15T21:25:28.233Z,9.30
2018-09-15T21:27:56.069Z,8.63
2018-09-15T21:30:24.213Z,8.50
2018-09-15T21:32:51.986Z,11.87
2018-09-15T21:35:19.794Z,9.83
2018-09-15T21:37:47.591Z,9.93
2018-09-15T21:40:15.614Z,9.57
2018-09-15T21:42:43.387Z,12.17
2018-09-15T21:45:11.205Z,13.10
2018-09-15T21:47:39.092Z,12.13
2018-09-15T21:50:07.021Z,13.77
2018-09-15T21:52:34.805Z,9.07
2018-09-15T21:55:02.609Z,11.10
2018-09-15T21:57:30.492Z,10.97
2018-09-15T21:59:58.296Z,10.00
2018-09-15T22:02:26.109Z,10.57
2018-09-15T22:04:53.996Z,11.17
2018-09-15T22:07:21.786Z,9.93
2018-09-15T22:09:49.564Z,11.37
2018-09-15T22:12:17.351Z,10.63
2018-09-15T22:14:45.124Z,9.90
2018-09-15T22:17:12.931Z,9.43
2018-09-15T22:19:40.707Z,9.17
2018-09-15T22:22:08.562Z,10.33
2018-09-15T22:24:36.369Z,8.90
2018-09-15T22:27:04.174Z,11.20
2018-09-15T22:29:31.990Z,8.43
2018-09-15T22:31:59.763Z,8.33
2018-09-15T22:34:27.563Z,8.57
2018-09-15T22:36:55.369Z,9.00
2018-09-15T22:39:23.168Z,7.37
2018-09-15T22:41:50.948Z,6.87
2018-09-15T22:44:18.788Z,7.43
2018-09-15T22:46:46.583Z,7.10
2018-09-15T22:49:14.359Z,7.33
2018-09-15T22:51:42.151Z,8.13
2018-09-15T22:54:09.967Z,8.17
2018-09-15T22:56:37.759Z,7.30
2018-09-15T22:59:05.543Z,6.90
2018-09-15T23:01:33.334Z,8.93
2018-09-15T23:04:03.133Z,7.30
2018-09-15T23:06:31.221Z,10.00
2018-09-15T23:08:59.286Z,7.33
2018-09-15T23:11:27.118Z,9.10
2018-09-15T23:13:54.912Z,7.10
2018-09-15T23:16:22.708Z,7.53
2018-09-15T23:18:50.715Z,7.47
2018-09-15T23:21:18.481Z,6.20
2018-09-15T23:23:46.319Z,5.87
2018-09-15T23:26:14.120Z,9.00
2018-09-15T23:28:41.886Z,9.40
2018-09-15T23:31:09.674Z,6.00
2018-09-15T23:33:37.435Z,6.30
2018-09-15T23:36:05.311Z,7.00
2018-09-15T23:38:33.465Z,6.90
2018-09-15T23:41:01.303Z,6.87
2018-09-15T23:43:29.071Z,6.50
2018-09-15T23:45:56.926Z,7.80
2018-09-15T23:48:24.774Z,5.63
2018-09-15T23:50:52.586Z,6.67
2018-09-15T23:53:20.370Z,6.77
2018-09-15T23:55:48.136Z,5.60
2018-09-15T23:58:15.970Z,6.40
